Time;durP1;ratioP1;P1;durP2;ratioP2;P2;SDS_P1;SDS_P2;PMS_P1;PMS_P2;Temp;Humidity;BMP_temperature;BMP_pressure;BME280_temperature;BME280_humidity;BME280_pressure;Samples;Min_cycle;Max_cycle;Signal;HPM_P1;HPM_P2
2022/10/17 00:00:58;;;;;;;8.82;4.63;;;;;;;8.17;59.90;100756.69;5105824;28;20028;-64
2022/10/17 00:03:24;;;;;;;8.82;4.63;;;;;;;8.17;61.25;100754.13;5087738;28;20032;-64
2022/10/17 00:05:50;;;;;;;4.90;4.43;;;;;;;8.18;60.82;100753.25;5095857;28;20024;-65
2022/10/17 00:08:17;;;;;;;7.43;4.28;;;;;;;8.26;59.55;100759.31;5093394;28;20020;-65
2022/10/17 00:10:43;;;;;;;7.43;4.50;;;;;;;8.24;60.24;100745.56;5105662;28;20200;-64
2022/10/17 00:13:10;;;;;;;7.85;4.03;;;;;;;8.30;59.60;100750.72;5105854;28;20055;-64
2022/10/17 00:15:35;;;;;;;6.07;4.07;;;;;;;8.27;59.82;100743.84;5086166;28;20033;-66
2022/10/17 00:18:01;;;;;;;6.57;4.10;;;;;;;8.26;60.63;100738.66;5085350;28;20051;-66
2022/10/17 00:20:29;;;;;;;9.88;4.40;;;;;;;8.19;59.66;100736.91;5095650;28;20391;-64
2022/10/17 00:22:56;;;;;;;7.45;4.30;;;;;;;8.19;59.86;100736.91;5102575;28;20024;-65
2022/10/17 00:25:21;;;;;;;7.45;4.53;;;;;;;8.17;59.97;100728.31;5105715;28;20208;-65
2022/10/17 00:27:47;;;;;;;7.45;4.43;;;;;;;8.18;60.99;100732.59;5105558;28;20020;-65
2022/10/17 00:30:14;;;;;;;5.18;3.72;;;;;;;8.08;61.19;100718.78;5091942;28;20216;-65
2022/10/17 00:32:40;;;;;;;8.05;4.32;;;;;;;8.18;60.64;100719.69;5105488;28;20031;-64
2022/10/17 00:35:07;;;;;;;9.80;4.40;;;;;;;8.22;60.18;100721.44;5104775;28;20089;-64
2022/10/17 00:37:33;;;;;;;8.88;4.00;;;;;;;8.26;59.59;100715.44;5105064;28;20028;-64
2022/10/17 00:39:59;;;;;;;6.55;4.22;;;;;;;8.20;60.21;100705.94;5104938;28;20038;-64
2022/10/17 00:42:26;;;;;;;6.68;4.43;;;;;;;8.08;60.71;100696.44;5105330;28;20242;-64
2022/10/17 00:45:17;;;;;;;7.53;4.50;;;;;;;8.03;59.92;100694.69;5090217;28;20028;-64
2022/10/17 00:47:47;;;;;;;8.07;4.28;;;;;;;8.01;60.27;100679.22;5077623;28;20312;-64
2022/10/17 00:50:14;;;;;;;9.18;4.50;;;;;;;8.19;60.80;100696.47;5092728;28;20059;-64
2022/10/17 00:52:40;;;;;;;5.30;4.22;;;;;;;8.15;60.13;100693.88;5101602;28;20032;-64
2022/10/17 00:55:30;;;;;;;5.78;3.75;;;;;;;8.23;60.37;100692.22;5084541;28;20025;-64
2022/10/17 00:57:59;;;;;;;5.85;4.20;;;;;;;8.19;60.89;100681.00;5084711;28;20085;-64
2022/10/17 01:00:25;;;;;;;6.50;4.50;;;;;;;8.13;60.74;100689.56;5102618;28;20205;-63
2022/10/17 01:02:51;;;;;;;9.43;4.57;;;;;;;7.98;61.13;100671.47;5091311;28;20020;-63
2022/10/17 01:05:18;;;;;;;7.40;4.53;;;;;;;7.99;60.58;100656.84;5092794;28;20027;-64
2022/10/17 01:07:45;;;;;;;6.47;4.65;;;;;;;8.09;60.89;100679.22;5085701;28;20043;-65
2022/10/17 01:10:12;;;;;;;6.22;4.45;;;;;;;8.04;60.36;100645.69;5084446;28;20051;-63
2022/10/17 01:12:49;;;;;;;6.43;4.43;;;;;;;8.00;61.14;100653.41;5104164;28;20024;-64
2022/10/17 01:15:33;;;;;;;6.75;4.53;;;;;;;8.05;60.63;100662.00;5088079;28;20037;-64
2022/10/17 01:18:20;;;;;;;7.28;4.43;;;;;;;8.04;60.39;100666.31;5084111;28;20017;-64
2022/10/17 01:21:11;;;;;;;6.15;4.38;;;;;;;7.90;60.46;100627.56;5095272;28;20099;-64
2022/10/17 01:24:15;;;;;;;6.57;4.22;;;;;;;8.02;60.46;100644.78;5101645;28;20114;-65
2022/10/17 01:26:59;;;;;;;9.25;4.70;;;;;;;7.99;61.17;100642.22;5092740;28;20032;-64
2022/10/17 01:29:47;;;;;;;4.80;4.10;;;;;;;8.01;60.94;100630.19;5093205;28;20028;-64
2022/10/17 01:32:22;;;;;;;9.00;4.40;;;;;;;8.10;61.40;100635.38;5104101;28;20028;-64
2022/10/17 01:34:55;;;;;;;6.88;5.15;;;;;;;7.95;60.67;100636.19;5103393;28;20036;-64
2022/10/17 01:37:33;;;;;;;6.93;4.50;;;;;;;7.94;61.71;100638.75;5103873;28;20225;-64
2022/10/17 01:40:15;;;;;;;6.97;4.90;;;;;;;7.91;61.20;100628.44;5083833;28;20036;-64
2022/10/17 01:42:54;;;;;;;8.77;4.38;;;;;;;7.84;61.87;100616.34;5103266;28;20045;-64
2022/10/17 01:45:36;;;;;;;5.95;4.22;;;;;;;7.92;62.23;100619.81;5087325;28;20090;-63
2022/10/17 01:48:08;;;;;;;7.57;4.20;;;;;;;7.90;61.62;100611.22;5097567;28;20095;-63
2022/10/17 01:50:36;;;;;;;;;;;;;;;7.81;61.78;100622.38;5094247;28;20317;-64
2022/10/17 01:53:13;;;;;;;8.85;4.85;;;;;;;7.77;61.43;100606.00;5083218;28;19957;-64
2022/10/17 01:55:41;;;;;;;9.63;4.90;;;;;;;7.72;62.71;100612.84;5086632;28;20028;-64
2022/10/17 01:58:23;;;;;;;10.23;4.53;;;;;;;7.67;62.64;100600.81;5103977;28;20040;-64
2022/10/17 02:00:51;;;;;;;7.03;4.50;;;;;;;7.72;62.52;100591.38;5099225;28;20193;-65
2022/10/17 02:03:19;;;;;;;8.43;4.40;;;;;;;7.69;62.50;100578.47;5094929;28;20054;-64
2022/10/17 02:05:45;;;;;;;9.15;4.93;;;;;;;7.73;61.97;100593.09;5092826;28;20037;-65
2022/10/17 02:08:11;;;;;;;10.65;4.80;;;;;;;7.74;62.23;100594.81;5096699;28;20032;-66
2022/10/17 02:11:30;;;;;;;11.35;4.55;;;;;;;7.74;62.74;100597.41;5067879;28;20025;-65
2022/10/17 02:14:04;;;;;;;5.20;4.45;;;;;;;7.56;62.50;100595.59;5063309;28;20040;-64
2022/10/17 02:16:40;;;;;;;8.13;4.43;;;;;;;7.59;63.06;100599.03;5093020;28;20062;-66
2022/10/17 02:19:14;;;;;;;5.78;4.32;;;;;;;7.54;63.54;100600.72;5092876;28;20031;-65
2022/10/17 02:22:14;;;;;;;6.95;5.03;;;;;;;7.55;63.28;100605.03;5084947;28;20085;-64
2022/10/17 02:24:56;;;;;;;9.07;4.45;;;;;;;7.57;63.60;100599.91;5088330;28;20036;-65
2022/10/17 02:27:43;;;;;;;7.57;5.13;;;;;;;7.50;62.81;100583.53;5092990;28;20216;-65
2022/10/17 02:30:22;;;;;;;6.60;4.60;;;;;;;7.45;63.86;100574.03;5094703;28;20042;-65
2022/10/17 02:33:05;;;;;;;9.35;5.13;;;;;;;7.35;63.58;100586.84;5094075;28;20375;-66
2022/10/17 02:35:36;;;;;;;7.68;5.18;;;;;;;7.48;63.68;100586.94;5092130;28;20048;-65
2022/10/17 02:38:05;;;;;;;7.57;5.20;;;;;;;7.28;64.18;100581.66;5093600;28;20307;-65
2022/10/17 02:40:32;;;;;;;6.85;4.63;;;;;;;7.47;63.52;100592.94;5092958;28;20098;-65
2022/10/17 02:42:59;;;;;;;7.50;4.88;;;;;;;7.55;63.34;100594.72;5093250;28;20025;-64
2022/10/17 02:45:27;;;;;;;6.65;4.90;;;;;;;7.46;63.54;100619.59;5092350;28;20051;-64
2022/10/17 02:48:01;;;;;;;7.50;4.72;;;;;;;7.51;63.59;100592.09;5094105;28;20027;-65
2022/10/17 02:50:38;;;;;;;7.90;5.00;;;;;;;7.56;63.35;100582.69;5098604;28;20283;-64
2022/10/17 02:53:13;;;;;;;8.45;5.00;;;;;;;7.38;64.00;100570.56;5097425;28;20371;-66
2022/10/17 02:55:46;;;;;;;5.38;4.50;;;;;;;7.28;63.60;100559.31;5095691;28;20251;-66
2022/10/17 02:58:19;;;;;;;7.53;5.18;;;;;;;7.43;63.86;100568.88;5093663;28;20036;-66
2022/10/17 03:00:46;;;;;;;7.00;4.57;;;;;;;7.51;64.21;100571.47;5094314;28;20032;-65
2022/10/17 03:03:22;;;;;;;10.25;4.68;;;;;;;7.41;63.75;100570.56;5091965;28;20328;-65
2022/10/17 03:05:48;;;;;;;8.25;5.00;;;;;;;7.40;63.33;100558.56;5094533;28;20261;-65
2022/10/17 03:08:14;;;;;;;6.88;4.65;;;;;;;7.33;63.84;100565.38;5093274;28;20078;-65
2022/10/17 03:10:40;;;;;;;8.13;4.72;;;;;;;7.30;63.77;100560.22;5104596;28;20209;-65
2022/10/17 03:13:05;;;;;;;5.25;4.75;;;;;;;7.30;64.20;100549.91;5085098;28;20040;-64
2022/10/17 03:15:31;;;;;;;7.15;5.05;;;;;;;7.40;63.56;100561.13;5104084;28;20051;-65
2022/10/17 03:17:56;;;;;;;10.05;5.10;;;;;;;7.30;63.86;100556.78;5093735;28;20025;-64
2022/10/17 03:20:22;;;;;;;7.97;4.78;;;;;;;7.17;64.70;100558.38;5094480;28;20035;-65
2022/10/17 03:22:47;;;;;;;8.48;5.43;;;;;;;7.27;64.60;100549.91;5099412;28;20025;-65
2022/10/17 03:25:13;;;;;;;7.22;5.10;;;;;;;7.35;64.54;100555.94;5094352;28;20036;-65
2022/10/17 03:27:39;;;;;;;9.00;4.53;;;;;;;7.30;64.54;100546.47;5090442;28;20384;-65
2022/10/17 03:30:05;;;;;;;8.23;5.20;;;;;;;7.26;64.56;100540.44;5100031;28;20024;-64
2022/10/17 03:32:33;;;;;;;8.27;4.97;;;;;;;7.24;64.73;100530.13;5093447;28;20029;-64
2022/10/17 03:34:58;;;;;;;7.38;5.13;;;;;;;7.25;63.96;100515.50;5084852;28;20066;-64
2022/10/17 03:37:24;;;;;;;9.82;5.18;;;;;;;7.26;64.33;100519.81;5085925;28;20037;-64
2022/10/17 03:39:50;;;;;;;7.57;4.93;;;;;;;7.29;64.38;100508.69;5105894;28;20543;-64
2022/10/17 03:42:15;;;;;;;9.02;4.82;;;;;;;7.29;64.60;100514.69;5091341;28;20033;-64
2022/10/17 03:44:41;;;;;;;7.70;5.15;;;;;;;7.27;64.42;100500.94;5096082;28;20336;-63
2022/10/17 03:47:07;;;;;;;10.55;5.10;;;;;;;7.25;64.58;100507.78;5100493;28;20028;-64
2022/10/17 03:49:33;;;;;;;5.75;4.50;;;;;;;7.28;64.21;100504.38;5086679;28;20024;-65
2022/10/17 03:51:58;;;;;;;7.35;4.55;;;;;;;7.30;64.42;100498.38;5106187;28;20043;-64
2022/10/17 03:54:24;;;;;;;9.43;4.80;;;;;;;7.24;64.41;100504.34;5088906;28;20244;-65
2022/10/17 03:56:49;;;;;;;7.43;4.95;;;;;;;7.26;64.23;100496.63;5096648;28;20143;-64
2022/10/17 03:59:15;;;;;;;9.15;4.72;;;;;;;7.22;64.76;100498.31;5105729;28;20128;-64
2022/10/17 04:01:41;;;;;;;10.32;5.22;;;;;;;7.05;64.66;100481.91;5104213;28;20040;-66
2022/10/17 04:04:07;;;;;;;7.78;6.05;;;;;;;7.20;64.30;100504.34;5090357;28;20038;-66
2022/10/17 04:06:33;;;;;;;10.73;5.30;;;;;;;7.12;64.98;100495.69;5095408;28;20028;-65
2022/10/17 04:08:59;;;;;;;8.55;5.63;;;;;;;7.08;64.55;100490.53;5093848;28;20269;-65
2022/10/17 04:11:24;;;;;;;10.07;5.05;;;;;;;7.21;65.40;100493.16;5094886;28;20087;-65
2022/10/17 04:13:55;;;;;;;15.55;5.38;;;;;;;7.04;65.02;100477.59;5096035;28;20304;-65
2022/10/17 04:16:20;;;;;;;9.88;5.20;;;;;;;7.06;65.13;100476.78;5093706;28;20316;-65
2022/10/17 04:18:46;;;;;;;7.00;4.93;;;;;;;6.98;65.52;100473.28;5094807;28;20198;-66
2022/10/17 04:21:12;;;;;;;7.03;4.70;;;;;;;7.04;65.81;100468.19;5095545;28;20040;-65
2022/10/17 04:23:38;;;;;;;7.82;4.95;;;;;;;7.06;65.73;100481.06;5094885;28;20039;-65
2022/10/17 04:26:05;;;;;;;8.90;4.63;;;;;;;7.09;64.92;100484.50;5095786;28;20227;-65
2022/10/17 04:28:31;;;;;;;10.90;5.55;;;;;;;7.06;65.53;100481.91;5087723;28;20056;-66
2022/10/17 04:30:59;;;;;;;8.85;5.15;;;;;;;7.12;65.64;100472.50;5085005;28;20032;-66
2022/10/17 04:33:24;;;;;;;8.70;5.00;;;;;;;7.12;64.84;100468.22;5099195;28;20043;-66
2022/10/17 04:36:03;;;;;;;9.23;5.55;;;;;;;7.24;65.12;100470.00;5100369;28;20317;-65
2022/10/17 04:38:29;;;;;;;6.80;5.03;;;;;;;7.12;64.86;100457.06;5095115;28;20231;-66
2022/10/17 04:41:01;;;;;;;7.63;5.03;;;;;;;7.24;64.54;100464.88;5092142;28;20309;-65
2022/10/17 04:43:28;;;;;;;10.55;5.28;;;;;;;7.32;64.36;100462.31;5094515;28;20086;-66
2022/10/17 04:45:53;;;;;;;8.18;5.05;;;;;;;7.43;64.42;100463.22;5095918;28;20055;-67
2022/10/17 04:48:19;;;;;;;7.45;4.75;;;;;;;7.32;64.18;100447.69;5095305;28;20020;-65
2022/10/17 04:51:05;;;;;;;8.45;4.75;;;;;;;7.26;64.18;100447.69;5095247;28;20043;-65
2022/10/17 04:53:32;;;;;;;10.80;5.25;;;;;;;7.23;64.55;100442.53;5097593;28;20035;-65
2022/10/17 04:55:58;;;;;;;10.43;5.18;;;;;;;7.31;64.49;100448.56;5087437;28;20058;-67
2022/10/17 04:58:24;;;;;;;8.45;5.18;;;;;;;7.33;64.20;100449.44;5088354;28;20080;-67
2022/10/17 05:00:50;;;;;;;8.25;5.30;;;;;;;7.39;64.88;100451.16;5102480;28;20599;-67
2022/10/17 05:03:16;;;;;;;7.35;4.70;;;;;;;7.38;65.11;100447.75;5090237;28;20055;-67
2022/10/17 05:05:42;;;;;;;8.48;5.05;;;;;;;7.41;64.19;100447.75;5091789;28;20275;-66
2022/10/17 05:08:09;;;;;;;12.80;5.05;;;;;;;7.31;64.35;100442.53;5089173;28;20016;-68
2022/10/17 05:10:43;;;;;;;7.32;5.22;;;;;;;7.38;63.89;100421.09;5090516;28;20016;-67
2022/10/17 05:13:09;;;;;;;7.40;5.38;;;;;;;7.53;64.07;100440.91;5090745;28;20051;-68
2022/10/17 05:15:35;;;;;;;11.20;4.95;;;;;;;7.43;64.03;100425.41;5090580;28;20048;-66
2022/10/17 05:18:01;;;;;;;7.25;4.82;;;;;;;7.48;64.47;100440.03;5091161;28;20073;-66
2022/10/17 05:20:27;;;;;;;10.35;5.50;;;;;;;7.29;64.83;100421.06;5096980;28;20055;-67
2022/10/17 05:22:53;;;;;;;11.73;5.50;;;;;;;7.42;64.02;100418.56;5092767;28;20096;-67
2022/10/17 05:25:19;;;;;;;9.30;4.88;;;;;;;7.39;64.33;100417.69;5088062;28;20038;-67
2022/10/17 05:27:44;;;;;;;8.68;4.85;;;;;;;7.53;64.62;100426.31;5087507;28;20095;-67
2022/10/17 05:30:10;;;;;;;12.82;4.97;;;;;;;7.61;63.74;100418.63;5082275;28;20054;-67
2022/10/17 05:32:36;;;;;;;9.23;5.22;;;;;;;7.60;63.28;100401.41;5091156;28;20086;-66
2022/10/17 05:35:03;;;;;;;10.57;5.22;;;;;;;7.56;64.12;100399.69;5099717;28;20320;-67
2022/10/17 05:37:30;;;;;;;9.00;5.75;;;;;;;7.55;64.02;100388.53;5090097;28;20051;-67
2022/10/17 05:39:56;;;;;;;11.15;5.82;;;;;;;7.61;63.61;100395.41;5084922;28;20219;-67
2022/10/17 05:42:22;;;;;;;8.30;5.15;;;;;;;7.64;64.34;100402.28;5083652;28;20372;-67
2022/10/17 05:44:48;;;;;;;9.65;5.57;;;;;;;7.72;64.26;100419.47;5093811;28;20090;-67
2022/10/17 05:47:13;;;;;;;7.63;5.18;;;;;;;7.55;64.24;100414.31;5098319;28;20077;-68
2022/10/17 05:49:39;;;;;;;7.13;5.20;;;;;;;7.71;64.39;100412.63;5084166;28;20047;-67
2022/10/17 05:52:05;;;;;;;11.68;5.45;;;;;;;7.69;64.23;100406.59;5103804;28;20034;-67
2022/10/17 05:54:30;;;;;;;12.25;5.80;;;;;;;7.67;63.46;100397.16;5087612;28;20030;-68
2022/10/17 05:56:56;;;;;;;22.55;6.40;;;;;;;7.70;63.34;100387.69;5094549;28;20035;-68
2022/10/17 05:59:24;;;;;;;10.30;5.57;;;;;;;7.75;63.39;100377.38;5097164;28;20016;-67
2022/10/17 06:01:50;;;;;;;11.05;5.50;;;;;;;7.94;62.98;100378.28;5085032;28;20190;-67
2022/10/17 06:04:16;;;;;;;11.05;5.57;;;;;;;7.83;62.69;100369.66;5098485;28;20051;-68
2022/10/17 06:06:41;;;;;;;13.50;5.85;;;;;;;7.92;63.75;100375.69;5095077;28;20119;-67
2022/10/17 06:09:07;;;;;;;8.40;5.50;;;;;;;7.97;63.10;100378.25;5095213;28;20028;-66
2022/10/17 06:11:34;;;;;;;9.73;4.88;;;;;;;7.99;63.52;100388.59;5087341;28;20197;-66
2022/10/17 06:14:01;;;;;;;11.43;5.47;;;;;;;8.04;62.70;100382.56;5086296;28;20058;-66
2022/10/17 06:16:26;;;;;;;11.32;5.10;;;;;;;8.05;62.58;100389.44;5101563;28;20034;-66
2022/10/17 06:18:52;;;;;;;8.82;5.32;;;;;;;8.05;62.57;100386.88;5084489;28;20024;-66
2022/10/17 06:21:22;;;;;;;14.60;5.63;;;;;;;7.99;62.39;100350.75;5083638;28;20314;-67
2022/10/17 06:23:48;;;;;;;9.93;5.43;;;;;;;8.15;63.11;100381.69;5086929;28;20029;-68
2022/10/17 06:26:14;;;;;;;10.60;5.82;;;;;;;8.22;62.65;100378.25;5088100;28;20030;-68
2022/10/17 06:28:39;;;;;;;11.52;5.85;;;;;;;8.27;62.52;100366.22;5103116;28;20069;-67
2022/10/17 06:31:10;;;;;;;13.95;5.82;;;;;;;8.22;63.04;100358.50;5082641;28;20040;-66
2022/10/17 06:33:36;;;;;;;13.18;5.68;;;;;;;8.25;62.72;100368.81;5099568;28;20293;-67
2022/10/17 06:36:04;;;;;;;8.82;6.10;;;;;;;8.17;62.76;100372.25;5090185;28;20270;-68
2022/10/17 06:38:30;;;;;;;10.52;6.70;;;;;;;8.19;63.40;100381.69;5090278;28;20054;-67
2022/10/17 06:41:22;;;;;;;11.85;6.03;;;;;;;8.26;63.28;100382.56;5100499;28;20051;-68
2022/10/17 06:43:47;;;;;;;13.27;6.10;;;;;;;8.24;62.03;100385.13;5081266;28;20255;-68
2022/10/17 06:46:15;;;;;;;12.73;6.28;;;;;;;8.31;62.94;100380.84;5103255;28;20035;-68
2022/10/17 06:48:41;;;;;;;12.43;5.82;;;;;;;8.40;61.95;100374.81;5086206;28;20036;-65
2022/10/17 06:51:10;;;;;;;10.43;6.20;;;;;;;8.33;62.59;100365.34;5094666;28;20032;-67
2022/10/17 06:53:36;;;;;;;12.13;5.32;;;;;;;8.28;62.48;100353.31;5093992;28;20290;-67
2022/10/17 06:56:03;;;;;;;19.65;7.00;;;;;;;8.32;62.81;100342.97;5085916;28;20028;-68
2022/10/17 06:58:31;;;;;;;8.00;5.45;;;;;;;8.42;62.24;100322.31;5103318;28;20031;-68
2022/10/17 07:01:02;;;;;;;19.45;6.15;;;;;;;8.60;61.93;100315.41;5083432;28;20313;-67
2022/10/17 07:03:28;;;;;;;18.08;7.00;;;;;;;8.73;62.24;100326.56;5097761;28;20137;-67
2022/10/17 07:05:55;;;;;;;19.08;6.20;;;;;;;8.80;61.91;100336.84;5092438;28;20085;-67
2022/10/17 07:08:20;;;;;;;19.23;6.15;;;;;;;8.93;61.44;100329.91;5088346;28;20023;-68
2022/10/17 07:10:47;;;;;;;18.60;6.43;;;;;;;8.88;61.63;100316.19;5102218;28;20024;-67
2022/10/17 07:13:12;;;;;;;28.27;6.85;;;;;;;9.18;60.12;100341.88;5082537;28;20032;-66
2022/10/17 07:15:39;;;;;;;15.00;5.95;;;;;;;9.15;61.45;100335.84;5082635;28;20028;-67
2022/10/17 07:18:05;;;;;;;15.85;6.47;;;;;;;9.12;60.85;100330.72;5082524;28;20017;-67
2022/10/17 07:20:31;;;;;;;10.00;5.35;;;;;;;9.25;59.71;100336.69;5089452;28;20287;-68
2022/10/17 07:22:56;;;;;;;12.88;5.70;;;;;;;9.35;60.12;100334.91;5096279;28;20066;-67
2022/10/17 07:25:22;;;;;;;10.80;5.53;;;;;;;9.31;59.91;100326.28;5102337;28;20441;-69
2022/10/17 07:27:51;;;;;;;9.77;6.13;;;;;;;9.33;59.29;100324.56;5085249;28;20063;-68
2022/10/17 07:30:18;;;;;;;11.57;5.68;;;;;;;9.29;60.17;100324.56;5094644;28;20234;-69
2022/10/17 07:32:45;;;;;;;69.95;8.85;;;;;;;9.34;60.64;100320.25;5099091;28;20020;-69
2022/10/17 07:35:11;;;;;;;13.02;6.03;;;;;;;9.25;59.22;100313.41;5114495;28;20052;-68
2022/10/17 07:37:37;;;;;;;11.98;4.95;;;;;;;9.33;61.10;100316.81;5126915;27;20040;-67
2022/10/17 07:40:05;;;;;;;13.85;6.00;;;;;;;9.22;60.34;100318.59;5087454;28;20193;-68
2022/10/17 07:42:31;;;;;;;10.10;5.50;;;;;;;9.31;61.31;100308.19;5101328;28;20030;-68
2022/10/17 07:44:57;;;;;;;8.88;5.40;;;;;;;9.32;62.42;100301.31;5096894;28;20317;-67
2022/10/17 07:47:23;;;;;;;13.30;5.63;;;;;;;9.17;61.08;100298.81;5096096;28;20096;-68
2022/10/17 07:49:49;;;;;;;11.38;5.65;;;;;;;9.30;61.35;100300.44;5088632;28;20213;-67
2022/10/17 07:52:15;;;;;;;10.57;5.88;;;;;;;9.30;61.51;100308.22;5100006;28;20095;-69
2022/10/17 07:54:42;;;;;;;10.02;5.75;;;;;;;9.31;60.45;100305.59;5106103;28;20031;-67
2022/10/17 07:57:08;;;;;;;11.32;6.07;;;;;;;9.29;60.39;100311.66;5096462;28;20335;-69
2022/10/17 07:59:35;;;;;;;14.32;6.53;;;;;;;9.17;61.39;100311.75;5096515;28;20052;-68
2022/10/17 08:02:01;;;;;;;14.80;5.97;;;;;;;9.15;61.18;100304.84;5098350;28;20236;-66
2022/10/17 08:04:27;;;;;;;13.60;5.72;;;;;;;9.22;60.49;100299.63;5096224;28;20054;-67
2022/10/17 08:06:53;;;;;;;12.25;6.07;;;;;;;9.24;60.73;100309.09;5091403;28;20301;-67
2022/10/17 08:09:19;;;;;;;8.35;4.85;;;;;;;9.30;60.96;100292.69;5098344;28;20039;-66
2022/10/17 08:11:45;;;;;;;12.48;6.18;;;;;;;9.17;61.98;100302.25;5096755;28;20024;-67
2022/10/17 08:14:12;;;;;;;12.90;6.80;;;;;;;9.06;63.51;100285.94;5083206;28;20158;-66
2022/10/17 08:16:39;;;;;;;10.18;6.32;;;;;;;9.14;65.06;100308.28;5088003;28;20024;-67
2022/10/17 08:19:07;;;;;;;11.73;6.50;;;;;;;8.90;65.90;100292.94;5085559;28;20062;-67
2022/10/17 08:21:34;;;;;;;11.73;6.32;;;;;;;8.79;67.90;100303.28;5098578;28;20024;-67
2022/10/17 08:24:01;;;;;;;10.55;6.03;;;;;;;8.87;68.41;100300.69;5098231;28;20073;-69
2022/10/17 08:26:28;;;;;;;13.15;6.90;;;;;;;8.71;69.54;100298.16;5099710;28;20028;-68
2022/10/17 08:28:54;;;;;;;11.77;6.10;;;;;;;8.74;70.67;100293.00;5086112;28;20048;-68
2022/10/17 08:31:20;;;;;;;9.15;6.35;;;;;;;8.67;70.14;100311.94;5105587;28;20028;-67
2022/10/17 08:33:48;;;;;;;10.68;6.72;;;;;;;8.57;69.31;100310.28;5099967;28;20032;-68
2022/10/17 08:36:16;;;;;;;9.40;6.63;;;;;;;8.70;70.79;100300.75;5105037;28;20032;-67
2022/10/17 08:38:42;;;;;;;12.02;7.00;;;;;;;8.68;69.94;100307.63;5097462;28;20023;-66
2022/10/17 08:41:33;;;;;;;9.95;6.82;;;;;;;8.70;71.17;100299.03;5087650;28;20028;-68
2022/10/17 08:44:18;;;;;;;11.05;6.53;;;;;;;8.75;70.24;100299.88;5102915;28;20044;-65
2022/10/17 08:46:47;;;;;;;9.73;6.45;;;;;;;8.75;69.52;100286.09;5084904;28;20052;-68
2022/10/17 08:49:24;;;;;;;11.55;7.25;;;;;;;8.68;69.64;100277.53;5084692;28;20051;-67
2022/10/17 08:51:56;;;;;;;14.48;7.40;;;;;;;8.76;69.72;100275.75;5101806;28;20027;-67
2022/10/17 08:54:44;;;;;;;11.75;7.00;;;;;;;8.70;69.17;100255.13;5090552;28;20095;-68
2022/10/17 08:57:13;;;;;;;11.70;7.22;;;;;;;8.72;69.35;100257.69;5095895;28;20032;-67
2022/10/17 08:59:38;;;;;;;13.90;7.47;;;;;;;8.74;69.63;100267.16;5096399;28;20301;-66
2022/10/17 09:02:33;;;;;;;13.77;6.80;;;;;;;8.64;69.58;100283.56;5102563;28;20059;-66
2022/10/17 09:05:28;;;;;;;9.43;6.50;;;;;;;8.73;69.51;100286.09;5103154;28;20034;-66
2022/10/17 09:07:56;;;;;;;14.55;7.65;;;;;;;8.76;69.89;100291.25;5084050;28;20297;-66
2022/10/17 09:10:40;;;;;;;11.13;6.63;;;;;;;8.84;70.70;100293.81;5104783;28;20035;-67
2022/10/17 09:13:12;;;;;;;12.95;7.65;;;;;;;8.55;71.71;100291.34;5084980;28;20028;-67
2022/10/17 09:15:53;;;;;;;14.88;8.00;;;;;;;8.61;72.82;100291.34;5099755;28;20055;-67
2022/10/17 09:18:26;;;;;;;13.00;7.53;;;;;;;8.59;73.45;100281.00;5103563;28;20059;-67
2022/10/17 09:21:10;;;;;;;13.13;8.07;;;;;;;8.53;73.95;100262.94;5095642;28;20052;-67
2022/10/17 09:23:44;;;;;;;13.02;8.05;;;;;;;8.54;73.04;100250.91;5090261;28;20029;-66
2022/10/17 09:26:11;;;;;;;15.10;7.97;;;;;;;8.61;75.23;100266.34;5084082;28;20043;-67
2022/10/17 09:28:39;;;;;;;12.57;8.18;;;;;;;8.57;74.24;100271.53;5084305;28;20023;-67
2022/10/17 09:31:09;;;;;;;13.82;9.15;;;;;;;8.49;76.80;100260.38;5101371;28;20211;-67
2022/10/17 09:33:43;;;;;;;18.02;8.10;;;;;;;8.55;77.15;100275.84;5099640;28;20095;-68
2022/10/17 09:36:36;;;;;;;12.80;8.05;;;;;;;8.66;78.34;100293.88;5093200;28;20099;-68
2022/10/17 09:39:12;;;;;;;15.40;9.10;;;;;;;8.40;79.44;100281.91;5090425;28;20089;-69
2022/10/17 09:41:46;;;;;;;15.63;8.60;;;;;;;8.09;82.15;100282.84;5097647;28;20221;-67
2022/10/17 09:44:21;;;;;;;12.95;8.48;;;;;;;8.20;82.32;100287.09;5085168;28;20172;-67
2022/10/17 09:47:26;;;;;;;15.55;9.43;;;;;;;8.12;82.87;100279.38;5104090;28;20141;-68
2022/10/17 09:49:52;;;;;;;13.00;9.07;;;;;;;8.12;83.52;100251.88;5103725;28;20032;-68
2022/10/17 09:52:46;;;;;;;13.10;8.10;;;;;;;8.17;83.55;100244.09;5085180;28;20017;-67
2022/10/17 09:55:42;;;;;;;16.10;9.73;;;;;;;8.27;83.78;100258.69;5086832;28;20036;-69
2022/10/17 09:58:09;;;;;;;14.77;8.93;;;;;;;8.17;84.80;100258.72;5104510;28;20048;-67
2022/10/17 10:00:38;;;;;;;12.35;9.00;;;;;;;8.01;83.53;100251.03;5090470;28;20036;-67
2022/10/17 10:03:19;;;;;;;11.18;8.85;;;;;;;8.08;83.00;100252.72;5093054;28;20091;-66
2022/10/17 10:06:11;;;;;;;13.27;8.55;;;;;;;8.09;82.89;100246.72;5088005;28;20205;-67
2022/10/17 10:08:57;;;;;;;14.00;8.50;;;;;;;8.24;83.32;100237.22;5095220;28;20028;-67
2022/10/17 10:11:45;;;;;;;12.88;9.40;;;;;;;8.21;84.07;100239.78;5087152;28;20120;-66
2022/10/17 10:14:28;;;;;;;14.85;9.35;;;;;;;8.29;84.31;100244.09;5101608;28;20108;-67
2022/10/17 10:16:54;;;;;;;11.15;8.65;;;;;;;8.04;84.59;100235.53;5083246;28;20092;-67
2022/10/17 10:19:30;;;;;;;13.60;8.90;;;;;;;8.26;83.70;100232.91;5109109;28;20091;-67
2022/10/17 10:22:17;;;;;;;15.20;9.63;;;;;;;8.23;82.52;100214.84;5086655;28;20406;-67
2022/10/17 10:24:43;;;;;;;14.02;9.57;;;;;;;8.26;82.57;100217.41;5098145;28;20051;-68
2022/10/17 10:27:17;;;;;;;14.18;9.13;;;;;;;8.30;82.62;100203.63;5092743;28;20025;-66
2022/10/17 10:29:49;;;;;;;13.60;9.23;;;;;;;8.50;82.60;100216.50;5090140;28;20032;-68
2022/10/17 10:32:26;;;;;;;18.75;9.85;;;;;;;8.16;83.36;100197.69;5100458;28;20020;-67
2022/10/17 10:34:52;;;;;;;12.27;8.73;;;;;;;8.30;82.54;100206.22;5082824;28;20044;-67
2022/10/17 10:37:26;;;;;;;12.43;9.02;;;;;;;8.34;82.18;100196.72;5103092;28;20055;-68
2022/10/17 10:39:58;;;;;;;14.15;9.38;;;;;;;8.21;82.63;100195.91;5087074;28;20228;-66
2022/10/17 10:42:36;;;;;;;10.68;8.45;;;;;;;8.36;81.94;100170.06;5082910;28;20032;-67
2022/10/17 10:45:23;;;;;;;16.60;9.70;;;;;;;8.43;80.83;100194.97;5091880;28;20324;-66
2022/10/17 10:47:58;;;;;;;13.27;8.85;;;;;;;8.54;81.67;100207.03;5095828;28;20033;-67
2022/10/17 10:50:40;;;;;;;12.73;9.07;;;;;;;8.40;81.44;100201.88;5087139;28;20047;-67
2022/10/17 10:53:28;;;;;;;12.77;8.82;;;;;;;8.35;80.44;100191.59;5101387;28;20052;-67
2022/10/17 10:56:01;;;;;;;13.05;8.98;;;;;;;8.25;81.42;100187.31;5082653;28;20032;-67
2022/10/17 10:58:30;;;;;;;13.25;9.23;;;;;;;8.32;82.51;100204.47;5083032;28;20016;-67
2022/10/17 11:00:59;;;;;;;14.52;8.95;;;;;;;8.30;80.65;100177.84;5094864;28;20336;-67
2022/10/17 11:03:32;;;;;;;16.63;8.90;;;;;;;8.52;81.77;100191.53;5095095;28;20060;-68
2022/10/17 11:06:05;;;;;;;16.08;9.77;;;;;;;8.46;81.01;100179.53;5094245;28;20020;-68
2022/10/17 11:08:55;;;;;;;12.10;9.50;;;;;;;8.56;82.34;100172.56;5090838;28;20031;-68
2022/10/17 11:11:31;;;;;;;12.25;8.77;;;;;;;8.67;81.22;100184.59;5088687;28;20274;-66
2022/10/17 11:14:06;;;;;;;12.00;8.75;;;;;;;8.58;81.25;100178.59;5106887;28;20394;-67
2022/10/17 11:16:37;;;;;;;13.25;9.75;;;;;;;8.43;81.63;100161.41;5087838;28;20033;-67
2022/10/17 11:19:27;;;;;;;15.32;9.60;;;;;;;8.62;82.01;100176.84;5094727;28;20162;-68
2022/10/17 11:22:30;;;;;;;12.85;9.15;;;;;;;8.69;81.06;100175.94;5092708;28;20032;-68
2022/10/17 11:24:59;;;;;;;12.68;8.93;;;;;;;8.58;80.87;100176.03;5102755;28;20024;-67
2022/10/17 11:27:28;;;;;;;13.90;9.23;;;;;;;8.50;80.89;100174.34;5094607;28;20044;-68
2022/10/17 11:29:54;;;;;;;16.08;10.90;;;;;;;8.59;82.66;100176.88;5093971;28;20028;-67
2022/10/17 11:32:29;;;;;;;15.80;8.93;;;;;;;8.55;80.51;100157.09;5103466;28;20032;-67
2022/10/17 11:35:05;;;;;;;12.88;9.77;;;;;;;8.40;82.08;100169.19;5085843;28;20043;-68
2022/10/17 11:37:39;;;;;;;14.13;9.45;;;;;;;8.44;81.67;100165.75;5085304;28;20036;-67
2022/10/17 11:40:28;;;;;;;19.00;9.65;;;;;;;8.60;81.92;100155.34;5103798;28;20208;-69
2022/10/17 11:43:26;;;;;;;12.02;8.93;;;;;;;8.75;81.80;100156.97;5090266;28;20032;-68
2022/10/17 11:45:57;;;;;;;14.95;10.05;;;;;;;8.55;81.92;100144.19;5067255;28;20032;-68
2022/10/17 11:48:29;;;;;;;15.00;10.90;;;;;;;8.54;83.30;100151.09;5097678;28;20063;-67